
Distance (Route):
Temperature : -1.5°C
Humidity : 99.0%
Pressure : 628.5hPa| Receiver | Frames | First received | Last received |
|---|---|---|---|
| OM5KV | 92 | 2026-09-01 01:17:24 | 2026-09-01 01:24:32 |
| LZ4TU-5 | 87 | 2026-08-31 23:47:23 | 2026-09-01 01:30:07 |
| 9A1FER-3 | 85 | 2026-09-01 00:38:18 | 2026-09-01 01:15:55 |
| GYPAP8-17 | 34 | 2026-08-31 23:42:41 | 2026-09-01 01:36:52 |
| 9A1FER-10 | 1 | 2026-09-01 01:08:42 | 2026-09-01 01:08:42 |
| Receiver | Date | Latitude | Longitude | Direction | Speed | Altitude | Climb | Temperature | Humidity | Pressure | Voltage | Killtimer | Uptime | BKT | XDATA |
|---|---|---|---|---|---|---|---|---|---|---|---|---|---|---|---|
| GYPAP8-17 | 2026-09-01 01:36:52 | 46.46480 | 21.32200 | 42° | 64km/h | 4049m | -9.3m/s | -1.5°C | 99.0% | 628.5hPa | 2.6V | 08:02:00 | 00:00:00 | 00:00:00 | |
| GYPAP8-17 | 2026-09-01 01:36:00 | 46.45843 | 21.31376 | 44° | 71km/h | 4561m | -9.6m/s | -3.9°C | 0% | 589.2hPa | 2.6V | 08:03:00 | 00:00:00 | 00:00:00 | |
| GYPAP8-17 | 2026-09-01 01:35:01 | 46.45112 | 21.30239 | 58° | 68km/h | 5096m | -10.5m/s | -6.8°C | 0% | 550.5hPa | 2.6V | 00:00:00 | 00:00:00 | 00:00:00 | |
| GYPAP8-17 | 2026-09-01 01:34:01 | 46.44588 | 21.28939 | 64° | 73km/h | 5638m | -7.6m/s | -9.4°C | 93.6% | 513.4hPa | 2.6V | 00:00:00 | 00:00:00 | 00:00:00 | |
| GYPAP8-17 | 2026-09-01 01:30:12 | 46.43418 | 21.23906 | 77° | 55km/h | 7808m | -8.5m/s | -23.9°C | 89.3% | 384.7hPa | 2.6V | 00:00:00 | 00:00:00 | 00:00:00 | |
| LZ4TU-5 | 2026-09-01 01:30:07 | 46.43400 | 21.23812 | 74° | 53km/h | 7854m | -10.3m/s | -24.3°C | 90.2% | 382.4hPa | 2.6V | 08:08:00 | 00:00:00 | 00:00:00 | |
| LZ4TU-5 | 2026-09-01 01:30:02 | 46.43384 | 21.23719 | 79° | 51km/h | 7902m | -7.7m/s | -24.7°C | 91.2% | 379.8hPa | 2.6V | 00:00:00 | 00:00:00 | 00:00:00 | |
| LZ4TU-5 | 2026-09-01 01:28:46 | 46.43191 | 21.21929 | 91° | 71km/h | 8681m | -9.8m/s | -31.1°C | 37.1% | 340.8hPa | 2.6V | 00:00:00 | 00:00:00 | 00:00:00 | |
| LZ4TU-5 | 2026-09-01 01:28:42 | 46.43190 | 21.21822 | 91° | 75km/h | 8721m | -9.6m/s | -31.5°C | 35.6% | 339.0hPa | 2.6V | 00:00:00 | 00:00:00 | 00:00:00 | |
| GYPAP8-17 | 2026-09-01 01:28:01 | 46.43210 | 21.20711 | 91° | 77km/h | 9164m | -11.0m/s | -35.7°C | 44.1% | 318.2hPa | 2.6V | 00:00:00 | 00:00:00 | 00:00:00 | |
| LZ4TU-5 | 2026-09-01 01:27:27 | 46.43221 | 21.19652 | 87° | 86km/h | 9534m | -11.6m/s | -39.1°C | 65.0% | 301.7hPa | 2.6V | 00:00:00 | 00:00:00 | 00:00:00 | |
| LZ4TU-5 | 2026-09-01 01:27:22 | 46.43213 | 21.19494 | 88° | 86km/h | 9587m | -10.3m/s | -39.4°C | 64.2% | 299.3hPa | 2.6V | 00:00:00 | 00:00:00 | 00:00:00 | |
| GYPAP8-17 | 2026-09-01 01:26:37 | 46.43045 | 21.18024 | 79° | 100km/h | 10078m | -12.1m/s | -43.5°C | 80.3% | 278.5hPa | 2.6V | 00:00:00 | 00:00:00 | 00:00:00 | |
| LZ4TU-5 | 2026-09-01 01:26:07 | 46.42883 | 21.16910 | 78° | 99km/h | 10430m | -11.4m/s | -46.3°C | 66.7% | 264.5hPa | 2.6V | 00:00:00 | 00:00:00 | 00:00:00 | |
| LZ4TU-5 | 2026-09-01 01:26:01 | 46.42854 | 21.16729 | 79° | 106km/h | 10484m | -10.3m/s | -46.7°C | 59.1% | 262.3hPa | 2.6V | 00:00:00 | 00:00:00 | 00:00:00 | |
| LZ4TU-5 | 2026-09-01 01:24:45 | 46.42611 | 21.13275 | 88° | 139km/h | 11314m | -12.6m/s | -50.2°C | 22.2% | 231.2hPa | 2.6V | 00:00:00 | 00:00:00 | 00:00:00 | |
| LZ4TU-5 | 2026-09-01 01:24:40 | 46.42608 | 21.13025 | 90° | 133km/h | 11372m | -11.6m/s | -50.6°C | 22.0% | 229.1hPa | 2.6V | 00:00:00 | 00:00:00 | 00:00:00 | |
| OM5KV | 2026-09-01 01:24:32 | 46.42609 | 21.12624 | 92° | 141km/h | 11466m | -10.5m/s | -51.1°C | 21.6% | 225.9hPa | 2.6V | 00:00:00 | 00:00:00 | 00:00:00 | |
| OM5KV | 2026-09-01 01:24:28 | 46.42612 | 21.12372 | 92° | 135km/h | 11523m | -12.3m/s | -51.3°C | 20.7% | 223.9hPa | 2.6V | 08:14:00 | 00:00:00 | 00:00:00 | |
| OM5KV | 2026-09-01 01:24:27 | 46.42612 | 21.12372 | 92° | 135km/h | 11523m | -12.3m/s | -51.3°C | 20.7% | 223.9hPa | 2.6V | 00:00:00 | 00:00:00 | 00:00:00 | |
| OM5KV | 2026-09-01 01:24:14 | 46.42594 | 21.11728 | 85° | 133km/h | 11675m | -12.1m/s | -51.5°C | 18.5% | 218.8hPa | 2.6V | 08:14:00 | 00:00:00 | 00:00:00 | |
| OM5KV | 2026-09-01 01:24:10 | 46.42581 | 21.11532 | 85° | 137km/h | 11715m | -9.1m/s | -51.6°C | 18.2% | 217.4hPa | 2.6V | 00:00:00 | 00:00:00 | 00:00:00 | |
| OM5KV | 2026-09-01 01:24:08 | 46.42573 | 21.11432 | 84° | 135km/h | 11737m | -11.2m/s | -51.8°C | 18.0% | 216.7hPa | 2.6V | 08:14:00 | 00:00:00 | 00:00:00 | |
| OM5KV | 2026-09-01 01:24:04 | 46.42559 | 21.11236 | 84° | 135km/h | 11782m | -11.7m/s | -52.2°C | 18.3% | 215.1hPa | 2.6V | 08:15:00 | 00:00:00 | 00:00:00 | |
| OM5KV | 2026-09-01 01:23:58 | 46.42539 | 21.10940 | 86° | 135km/h | 11853m | -11.8m/s | -52.8°C | 18.4% | 212.8hPa | 2.6V | 08:15:00 | 00:00:00 | 00:00:00 | |
| OM5KV | 2026-09-01 01:23:52 | 46.42524 | 21.10637 | 87° | 137km/h | 11920m | -12.2m/s | -53.4°C | 17.9% | 210.6hPa | 2.6V | 08:15:00 | 00:00:00 | 00:00:00 | |
| OM5KV | 2026-09-01 01:23:51 | 46.42521 | 21.10586 | 87° | 141km/h | 11932m | -11.6m/s | -53.5°C | 17.8% | 210.3hPa | 2.6V | 08:15:00 | 00:00:00 | 00:00:00 | |
| OM5KV | 2026-09-01 01:23:46 | 46.42512 | 21.10332 | 87° | 139km/h | 11987m | -11.8m/s | -53.6°C | 17.5% | 208.4hPa | 2.6V | 08:15:00 | 00:00:00 | 00:00:00 | |
| OM5KV | 2026-09-01 01:23:40 | 46.42504 | 21.10029 | 89° | 135km/h | 12069m | -13.4m/s | -54.0°C | 16.9% | 205.9hPa | 2.6V | 08:15:00 | 00:00:00 | 00:00:00 | |
| OM5KV | 2026-09-01 01:23:34 | 46.42495 | 21.09729 | 88° | 141km/h | 12145m | -12.5m/s | -54.4°C | 15.9% | 203.4hPa | 2.6V | 08:15:00 | 00:00:00 | 00:00:00 | |
| OM5KV | 2026-09-01 01:23:26 | 46.42479 | 21.09328 | 89° | 137km/h | 12256m | -11.9m/s | -54.2°C | 13.7% | 199.9hPa | 2.6V | 08:15:00 | 00:00:00 | 00:00:00 | |
| OM5KV | 2026-09-01 01:23:25 | 46.42477 | 21.09278 | 87° | 133km/h | 12269m | -13.0m/s | -54.2°C | 13.7% | 199.6hPa | 2.6V | 08:15:00 | 00:00:00 | 00:00:00 | |
| LZ4TU-5 | 2026-09-01 01:23:24 | 46.42475 | 21.09229 | 88° | 135km/h | 12281m | -11.1m/s | -54.3°C | 13.7% | 199.2hPa | 2.6V | 00:00:00 | 00:00:00 | 00:00:00 | |
| OM5KV | 2026-09-01 01:23:20 | 46.42467 | 21.09032 | 89° | 135km/h | 12333m | -12.8m/s | -54.6°C | 13.4% | 197.6hPa | 2.6V | 08:15:00 | 00:00:00 | 00:00:00 | |
| OM5KV | 2026-09-01 01:23:19 | 46.42466 | 21.08982 | 89° | 139km/h | 12345m | -11.3m/s | -54.6°C | 13.4% | 197.1hPa | 2.6V | 08:15:00 | 00:00:00 | 00:00:00 | |
| OM5KV | 2026-09-01 01:23:14 | 46.42458 | 21.08680 | 89° | 141km/h | 12413m | -12.8m/s | -54.8°C | 12.9% | 195.1hPa | 2.6V | 08:16:00 | 00:00:00 | 00:00:00 | |
| OM5KV | 2026-09-01 01:23:09 | 46.42453 | 21.08476 | 88° | 142km/h | 12467m | -14.8m/s | -55.0°C | 12.3% | 193.5hPa | 2.6V | 08:16:00 | 00:00:00 | 00:00:00 | |
| OM5KV | 2026-09-01 01:23:06 | 46.42449 | 21.08322 | 89° | 141km/h | 12506m | -14.8m/s | -55.3°C | 11.9% | 192.2hPa | 2.6V | 08:16:00 | 00:00:00 | 00:00:00 | |
| OM5KV | 2026-09-01 01:23:04 | 46.42445 | 21.08220 | 86° | 137km/h | 12539m | -17.7m/s | -55.3°C | 11.7% | 191.3hPa | 2.6V | 08:16:00 | 00:00:00 | 00:00:00 | |
| OM5KV | 2026-09-01 01:23:00 | 46.42433 | 21.08021 | 86° | 137km/h | 12603m | -14.0m/s | -55.5°C | 11.6% | 189.4hPa | 2.6V | 08:16:00 | 00:00:00 | 00:00:00 | |
| OM5KV | 2026-09-01 01:22:54 | 46.42412 | 21.07727 | 84° | 131km/h | 12685m | -16.6m/s | -55.7°C | 10.6% | 186.9hPa | 2.6V | 08:16:00 | 00:00:00 | 00:00:00 | |
| OM5KV | 2026-09-01 01:22:51 | 46.42399 | 21.07584 | 84° | 135km/h | 12739m | -17.5m/s | -56.0°C | 10.5% | 185.5hPa | 2.6V | 08:16:00 | 00:00:00 | 00:00:00 | |
| OM5KV | 2026-09-01 01:22:49 | 46.42388 | 21.07442 | 85° | 131km/h | 12788m | -14.3m/s | -56.0°C | 10.5% | 184.0hPa | 2.6V | 08:16:00 | 00:00:00 | 00:00:00 | |
| OM5KV | 2026-09-01 01:22:32 | 46.42327 | 21.06700 | 83° | 126km/h | 13064m | -20.2m/s | -57.5°C | 9.7% | 176.3hPa | 2.6V | 08:16:00 | 00:00:00 | 00:00:00 | |
| OM5KV | 2026-09-01 01:22:28 | 46.42303 | 21.06471 | 82° | 130km/h | 13165m | -17.3m/s | -58.2°C | 9.4% | 173.5hPa | 2.6V | 08:16:00 | 00:00:00 | 00:00:00 | |
| OM5KV | 2026-09-01 01:22:26 | 46.42298 | 21.06424 | 82° | 128km/h | 13181m | -16.5m/s | -58.1°C | 9.1% | 173.0hPa | 2.6V | 08:16:00 | 00:00:00 | 00:00:00 | |
| OM5KV | 2026-09-01 01:22:11 | 46.42225 | 21.05766 | 81° | 113km/h | 13426m | -14.1m/s | -58.8°C | 7.4% | 166.2hPa | 2.6V | 08:17:00 | 00:00:00 | 00:00:00 | |
| OM5KV | 2026-09-01 01:22:09 | 46.42215 | 21.05684 | 82° | 113km/h | 13454m | -14.5m/s | -58.9°C | 7.3% | 165.5hPa | 2.6V | 08:17:00 | 00:00:00 | 00:00:00 | |
| OM5KV | 2026-09-01 01:22:04 | 46.42187 | 21.05436 | 81° | 113km/h | 13534m | -14.4m/s | -58.9°C | 6.3% | 163.4hPa | 2.6V | 08:17:00 | 00:00:00 | 00:00:00 | |
| OM5KV | 2026-09-01 01:21:54 | 46.42143 | 21.05057 | 83° | 119km/h | 13663m | -11.6m/s | -57.6°C | 4.9% | 160.1hPa | 2.6V | 08:17:00 | 00:00:00 | 00:00:00 | |
| OM5KV | 2026-09-01 01:21:52 | 46.42135 | 21.04972 | 84° | 117km/h | 13687m | -12.1m/s | -57.3°C | 4.6% | 159.5hPa | 2.6V | 08:17:00 | 00:00:00 | 00:00:00 | |
| OM5KV | 2026-09-01 01:21:43 | 46.42117 | 21.04607 | 87° | 108km/h | 13809m | -13.1m/s | -56.5°C | 3.8% | 156.5hPa | 2.6V | 08:17:00 | 00:00:00 | 00:00:00 | |
| OM5KV | 2026-09-01 01:21:38 | 46.42108 | 21.04418 | 88° | 102km/h | 13880m | -14.4m/s | -56.1°C | 3.5% | 154.9hPa | 2.6V | 08:17:00 | 00:00:00 | 00:00:00 | |
| OM5KV | 2026-09-01 01:21:37 | 46.42106 | 21.04381 | 87° | 97km/h | 13894m | -13.9m/s | -56.1°C | 3.5% | 154.5hPa | 2.6V | 08:17:00 | 00:00:00 | 00:00:00 | |
| OM5KV | 2026-09-01 01:21:32 | 46.42102 | 21.04204 | 90° | 97km/h | 13963m | -14.1m/s | -55.9°C | 3.3% | 152.8hPa | 2.6V | 08:17:00 | 00:00:00 | 00:00:00 | |
| OM5KV | 2026-09-01 01:21:19 | 46.42106 | 21.03773 | 92° | 80km/h | 14181m | -18.2m/s | -56.4°C | 3.4% | 147.7hPa | 2.6V | 08:17:00 | 00:00:00 | 00:00:00 | |
| OM5KV | 2026-09-01 01:21:12 | 46.42105 | 21.03578 | 86° | 69km/h | 14292m | -17.3m/s | -56.8°C | 3.4% | 145.1hPa | 2.6V | 08:17:00 | 00:00:00 | 00:00:00 | |
| OM5KV | 2026-09-01 01:21:10 | 46.42103 | 21.03530 | 87° | 62km/h | 14323m | -15.6m/s | -56.7°C | 3.2% | 144.3hPa | 2.6V | 08:17:00 | 00:00:00 | 00:00:00 | |
| OM5KV | 2026-09-01 01:21:04 | 46.42092 | 21.03412 | 77° | 47km/h | 14437m | -20.3m/s | -56.1°C | 3.0% | 141.9hPa | 2.6V | 08:17:00 | 00:00:00 | 00:00:00 | |
| OM5KV | 2026-09-01 01:20:55 | 46.42066 | 21.03269 | 75° | 46km/h | 14602m | -17.7m/s | -57.3°C | 3.0% | 138.2hPa | 2.6V | 08:17:00 | 00:00:00 | 00:00:00 | |
| OM5KV | 2026-09-01 01:20:54 | 46.42063 | 21.03253 | 70° | 46km/h | 14620m | -19.6m/s | -57.5°C | 3.1% | 137.9hPa | 2.6V | 08:17:00 | 00:00:00 | 00:00:00 | |
| OM5KV | 2026-09-01 01:20:48 | 46.42036 | 21.03156 | 63° | 49km/h | 14715m | -19.7m/s | -58.3°C | 3.0% | 135.7hPa | 2.6V | 08:17:00 | 00:00:00 | 00:00:00 | |
| OM5KV | 2026-09-01 01:20:41 | 46.41997 | 21.03039 | 64° | 53km/h | 14846m | -19.9m/s | -59.4°C | 3.1% | 133.0hPa | 2.6V | 08:18:00 | 00:00:00 | 00:00:00 | |
| OM5KV | 2026-09-01 01:20:35 | 46.41958 | 21.02934 | 63° | 55km/h | 14963m | -18.7m/s | -60.3°C | 3.2% | 130.6hPa | 2.6V | 08:18:00 | 00:00:00 | 00:00:00 | |
| LZ4TU-5 | 2026-09-01 01:20:27 | 46.41899 | 21.02777 | 61° | 64km/h | 15109m | -18.9m/s | -61.1°C | 3.2% | 127.5hPa | 2.6V | 00:00:00 | 00:00:00 | 00:00:00 | |
| OM5KV | 2026-09-01 01:20:24 | 46.41874 | 21.02710 | 62° | 73km/h | 15168m | -22.7m/s | -61.2°C | 3.1% | 126.4hPa | 2.6V | 08:18:00 | 00:00:00 | 00:00:00 | |
| OM5KV | 2026-09-01 01:20:23 | 46.41865 | 21.02687 | 64° | 75km/h | 15189m | -19.5m/s | -61.4°C | 3.2% | 125.9hPa | 2.6V | 08:18:00 | 00:00:00 | 00:00:00 | |
| LZ4TU-5 | 2026-09-01 01:20:22 | 46.41856 | 21.02662 | 65° | 77km/h | 15209m | -19.7m/s | -61.5°C | 3.2% | 125.5hPa | 2.6V | 00:00:00 | 00:00:00 | 00:00:00 | |
| OM5KV | 2026-09-01 01:20:18 | 46.41825 | 21.02561 | 70° | 78km/h | 15278m | -15.3m/s | -61.3°C | 3.1% | 124.1hPa | 2.6V | 08:18:00 | 00:00:00 | 00:00:00 | |
| OM5KV | 2026-09-01 01:20:16 | 46.41811 | 21.02507 | 73° | 82km/h | 15311m | -16.8m/s | -61.3°C | 3.0% | 123.5hPa | 2.6V | 08:18:00 | 00:00:00 | 00:00:00 | |
| OM5KV | 2026-09-01 01:20:12 | 46.41790 | 21.02390 | 80° | 82km/h | 15388m | -20.7m/s | -61.6°C | 3.0% | 122.0hPa | 2.6V | 08:18:00 | 00:00:00 | 00:00:00 | |
| OM5KV | 2026-09-01 01:20:10 | 46.41783 | 21.02330 | 81° | 82km/h | 15429m | -20.0m/s | -61.7°C | 3.0% | 121.2hPa | 2.6V | 08:18:00 | 00:00:00 | 00:00:00 | |
| OM5KV | 2026-09-01 01:20:06 | 46.41770 | 21.02208 | 83° | 82km/h | 15511m | -22.8m/s | -61.5°C | 2.9% | 119.8hPa | 2.6V | 08:18:00 | 00:00:00 | 00:00:00 | |
| OM5KV | 2026-09-01 01:20:04 | 46.41764 | 21.02147 | 84° | 84km/h | 15551m | -18.3m/s | -61.4°C | 2.9% | 118.8hPa | 2.6V | 08:18:00 | 00:00:00 | 00:00:00 | |
| OM5KV | 2026-09-01 01:20:00 | 46.41751 | 21.02029 | 80° | 80km/h | 15634m | -21.2m/s | -61.7°C | 2.8% | 117.3hPa | 2.6V | 08:18:00 | 00:00:00 | 00:00:00 | |
| OM5KV | 2026-09-01 01:19:59 | 46.41747 | 21.02000 | 81° | 77km/h | 15655m | -21.4m/s | -61.3°C | 2.6% | 116.9hPa | 2.6V | 08:18:00 | 00:00:00 | 00:00:00 | |
| OM5KV | 2026-09-01 01:19:55 | 46.41731 | 21.01887 | 78° | 77km/h | 15734m | -19.5m/s | -61.1°C | 2.6% | 115.4hPa | 2.6V | 08:18:00 | 00:00:00 | 00:00:00 | |
| OM5KV | 2026-09-01 01:19:49 | 46.41701 | 21.01716 | 77° | 84km/h | 15861m | -19.9m/s | -58.8°C | 1.9% | 113.1hPa | 2.6V | 08:19:00 | 00:00:00 | 00:00:00 | |
| OM5KV | 2026-09-01 01:19:47 | 46.41690 | 21.01657 | 75° | 88km/h | 15901m | -19.9m/s | -59.0°C | 2.0% | 112.4hPa | 2.6V | 08:19:00 | 00:00:00 | 00:00:00 | |
| OM5KV | 2026-09-01 01:19:44 | 46.41666 | 21.01532 | 76° | 89km/h | 15970m | -13.2m/s | -59.7°C | 2.2% | 111.1hPa | 2.6V | 08:19:00 | 00:00:00 | 00:00:00 | |
| OM5KV | 2026-09-01 01:19:42 | 46.41661 | 21.01501 | 79° | 89km/h | 15982m | -11.2m/s | -59.8°C | 2.2% | 110.9hPa | 2.6V | 08:19:00 | 00:00:00 | 00:00:00 | |
| OM5KV | 2026-09-01 01:19:36 | 46.41638 | 21.01304 | 85° | 91km/h | 16068m | -18.7m/s | -59.9°C | 2.1% | 109.4hPa | 2.6V | 08:19:00 | 00:00:00 | 00:00:00 | |
| OM5KV | 2026-09-01 01:19:31 | 46.41632 | 21.01143 | 91° | 86km/h | 16158m | -18.8m/s | -59.9°C | 2.1% | 107.9hPa | 2.6V | 08:19:00 | 00:00:00 | 00:00:00 | |
| OM5KV | 2026-09-01 01:19:25 | 46.41634 | 21.00976 | 92° | 68km/h | 16261m | -18.1m/s | -58.8°C | 1.8% | 106.1hPa | 2.6V | 08:19:00 | 00:00:00 | 00:00:00 | |
| OM5KV | 2026-09-01 01:19:19 | 46.41631 | 21.00855 | 83° | 47km/h | 16374m | -20.2m/s | -56.8°C | 1.6% | 104.3hPa | 2.6V | 08:19:00 | 00:00:00 | 00:00:00 | |
| OM5KV | 2026-09-01 01:19:12 | 46.41619 | 21.00745 | 80° | 40km/h | 16495m | -17.6m/s | -57.2°C | 1.6% | 102.1hPa | 2.6V | 08:19:00 | 00:00:00 | 00:00:00 | |
| OM5KV | 2026-09-01 01:19:08 | 46.41615 | 21.00684 | 86° | 42km/h | 16565m | -19.9m/s | -57.3°C | 1.6% | 101.0hPa | 2.6V | 08:19:00 | 00:00:00 | 00:00:00 | |
| LZ4TU-5 | 2026-09-01 01:19:07 | 46.41614 | 21.00669 | 89° | 44km/h | 16585m | -21.8m/s | -56.5°C | 1.5% | 100.8hPa | 2.6V | 00:00:00 | 00:00:00 | 00:00:00 | |
| OM5KV | 2026-09-01 01:19:06 | 46.41614 | 21.00652 | 92° | 44km/h | 16607m | -21.2m/s | -56.2°C | 1.5% | 100.5hPa | 2.6V | 08:19:00 | 00:00:00 | 00:00:00 | |
| LZ4TU-5 | 2026-09-01 01:19:03 | 46.41616 | 21.00601 | 98° | 46km/h | 16667m | -18.5m/s | -56.4°C | 0% | 99.5hPa | 2.6V | 00:00:00 | 00:00:00 | 00:00:00 | |
| OM5KV | 2026-09-01 01:19:02 | 46.41618 | 21.00584 | 97° | 44km/h | 16687m | -20.5m/s | -56.4°C | 1.5% | 99.2hPa | 2.6V | 08:19:00 | 00:00:00 | 00:00:00 | |
| OM5KV | 2026-09-01 01:18:59 | 46.41622 | 21.00538 | 101° | 40km/h | 16740m | -13.2m/s | -56.6°C | 1.5% | 98.2hPa | 2.6V | 08:20:00 | 00:00:00 | 00:00:00 | |
| OM5KV | 2026-09-01 01:18:47 | 46.41599 | 21.00412 | 57° | 33km/h | 16946m | -16.3m/s | -55.6°C | 1.4% | 95.1hPa | 2.6V | 08:20:00 | 00:00:00 | 00:00:00 | |
| OM5KV | 2026-09-01 01:18:42 | 46.41572 | 21.00366 | 48° | 37km/h | 17036m | -17.8m/s | -55.6°C | 1.4% | 93.8hPa | 2.6V | 08:20:00 | 00:00:00 | 00:00:00 | |
| OM5KV | 2026-09-01 01:18:38 | 46.41551 | 21.00328 | 53° | 29km/h | 17108m | -20.3m/s | -55.8°C | 1.4% | 92.8hPa | 2.6V | 08:20:00 | 00:00:00 | 00:00:00 | |
| OM5KV | 2026-09-01 01:18:32 | 46.41525 | 21.00274 | 50° | 29km/h | 17227m | -18.6m/s | -56.0°C | 1.4% | 91.1hPa | 2.6V | 08:20:00 | 00:00:00 | 00:00:00 | |
| OM5KV | 2026-09-01 01:18:31 | 46.41520 | 21.00266 | 47° | 27km/h | 17245m | -17.8m/s | -55.9°C | 1.4% | 90.9hPa | 2.6V | 08:20:00 | 00:00:00 | 00:00:00 | |
| OM5KV | 2026-09-01 01:18:26 | 46.41496 | 21.00232 | 41° | 24km/h | 17336m | -22.5m/s | -55.4°C | 1.3% | 89.6hPa | 2.6V | 08:20:00 | 00:00:00 | 00:00:00 | |
| OM5KV | 2026-09-01 01:18:21 | 46.41473 | 21.00201 | 47° | 26km/h | 17454m | -22.2m/s | -55.9°C | 0% | 88.0hPa | 2.6V | 08:20:00 | 00:00:00 | 00:00:00 | |
| OM5KV | 2026-09-01 01:18:20 | 46.41468 | 21.00194 | 44° | 27km/h | 17476m | -21.7m/s | -56.0°C | 1.3% | 87.6hPa | 2.6V | 08:20:00 | 00:00:00 | 00:00:00 | |
| OM5KV | 2026-09-01 01:18:15 | 46.41445 | 21.00150 | 55° | 31km/h | 17583m | -21.5m/s | 0°C | 0% | 86.2hPa | 2.6V | 08:20:00 | 00:00:00 | 00:00:00 | |
| OM5KV | 2026-09-01 01:18:14 | 46.41440 | 21.00140 | 62° | 33km/h | 17605m | -20.8m/s | -56.5°C | 1.4% | 85.9hPa | 2.6V | 08:20:00 | 00:00:00 | 00:00:00 | |
| OM5KV | 2026-09-01 01:18:09 | 46.41425 | 21.00089 | 71° | 27km/h | 17698m | -17.6m/s | -56.8°C | 1.4% | 84.5hPa | 2.6V | 08:21:00 | 00:00:00 | 00:00:00 | |
| OM5KV | 2026-09-01 01:18:05 | 46.41419 | 21.00047 | 82° | 27km/h | 17769m | -16.1m/s | 0°C | 0% | 83.5hPa | 2.6V | 00:00:00 | 00:00:00 | 00:00:00 | |
| OM5KV | 2026-09-01 01:18:03 | 46.41417 | 21.00025 | 82° | 29km/h | 17801m | -18.2m/s | -56.7°C | 0% | 83.1hPa | 2.6V | 08:21:00 | 00:00:00 | 00:00:00 | |
| OM5KV | 2026-09-01 01:17:59 | 46.41413 | 20.99974 | 87° | 35km/h | 17886m | -19.6m/s | 0°C | 0% | 0hPa | 2.6V | 00:00:00 | 00:00:00 | 00:00:00 | |
| OM5KV | 2026-09-01 01:17:57 | 46.41411 | 20.99946 | 87° | 38km/h | 17922m | -16.1m/s | -57.1°C | 0% | 0hPa | 2.6V | 08:21:00 | 00:00:00 | 00:00:00 | |
| OM5KV | 2026-09-01 01:17:53 | 46.41410 | 20.99887 | 93° | 42km/h | 17986m | -14.1m/s | 0°C | 0% | 0hPa | 2.6V | 00:00:00 | 00:00:00 | 00:00:00 | |
| OM5KV | 2026-09-01 01:17:51 | 46.41412 | 20.99858 | 99° | 38km/h | 18021m | -18.8m/s | -57.3°C | 0% | 0hPa | 2.6V | 08:21:00 | 00:00:00 | 00:00:00 | |
| LZ4TU-5 | 2026-09-01 01:17:47 | 46.41420 | 20.99798 | 109° | 29km/h | 18111m | -15.1m/s | -57.5°C | 1.5% | 79.2hPa | 2.6V | 00:00:00 | 00:00:00 | 00:00:00 | |
| OM5KV | 2026-09-01 01:17:46 | 46.41420 | 20.99798 | 109° | 29km/h | 18111m | -15.1m/s | -57.5°C | 0% | 0hPa | 2.6V | 08:21:00 | 00:00:00 | 00:00:00 | |
| LZ4TU-5 | 2026-09-01 01:17:42 | 46.41428 | 20.99762 | 114° | 22km/h | 18184m | -19.1m/s | -57.5°C | 1.4% | 78.3hPa | 2.6V | 00:00:00 | 00:00:00 | 00:00:00 | |
| OM5KV | 2026-09-01 01:17:36 | 46.41436 | 20.99732 | 119° | 7km/h | 18321m | -20.3m/s | 0°C | 0% | 0hPa | 2.6V | 00:00:00 | 00:00:00 | 00:00:00 | |
| OM5KV | 2026-09-01 01:17:35 | 46.41437 | 20.99729 | 100° | 9km/h | 18340m | -17.0m/s | -57.4°C | 0% | 0hPa | 2.6V | 08:21:00 | 00:00:00 | 00:00:00 | |
| OM5KV | 2026-09-01 01:17:30 | 46.41430 | 20.99718 | 32° | 16km/h | 18439m | -20.8m/s | -56.9°C | 0% | 0hPa | 2.6V | 08:21:00 | 00:00:00 | 00:00:00 | |
| OM5KV | 2026-09-01 01:17:24 | 46.41408 | 20.99693 | 41° | 18km/h | 18547m | -17.6m/s | 0°C | 0% | 0hPa | 2.6V | 08:21:00 | 00:00:00 | 00:00:00 | |
| LZ4TU-5 | 2026-09-01 01:16:19 | 46.41192 | 20.99275 | 95° | 7km/h | 19837m | -19.6m/s | -54.9°C | 1.1% | 60.4hPa | 2.6V | 00:00:00 | 00:00:00 | 00:00:00 | |
| LZ4TU-5 | 2026-09-01 01:16:14 | 46.41190 | 20.99261 | 80° | 7km/h | 19942m | -16.4m/s | -54.9°C | 1.2% | 59.4hPa | 2.6V | 00:00:00 | 00:00:00 | 00:00:00 | |
| 9A1FER-3 | 2026-09-01 01:15:55 | 46.41165 | 20.99197 | 83° | 13km/h | 20300m | -19.4m/s | -54.2°C | 4.1% | 56.2hPa | 2.6V | 00:00:00 | 02:26:28 | 00:00:00 | |
| 9A1FER-3 | 2026-09-01 01:15:40 | 46.41146 | 20.99150 | 66° | 4km/h | 20573m | -16.7m/s | -54.6°C | 4.3% | 53.7hPa | 2.6V | 00:00:00 | 02:26:13 | 00:00:00 | |
| GYPAP8-17 | 2026-09-01 01:15:33 | 46.41148 | 20.99127 | 178° | 4km/h | 20685m | -22.4m/s | -54.0°C | 1.0% | 52.9hPa | 2.6V | 00:00:00 | 00:00:00 | 00:00:00 | |
| 9A1FER-3 | 2026-09-01 01:15:25 | 46.41156 | 20.99119 | 188° | 5km/h | 20852m | -17.3m/s | -54.1°C | 4.1% | 51.5hPa | 2.6V | 00:00:00 | 02:25:58 | 00:00:00 | |
| GYPAP8-17 | 2026-09-01 01:15:13 | 46.41178 | 20.99127 | 190° | 15km/h | 21047m | -16.1m/s | -54.1°C | 1.0% | 49.9hPa | 2.6V | 00:00:00 | 00:00:00 | 00:00:00 | |
| LZ4TU-5 | 2026-09-01 01:14:59 | 46.41185 | 20.99144 | 317° | 11km/h | 21317m | -20.6m/s | -54.4°C | 1.1% | 47.9hPa | 2.6V | 00:00:00 | 00:00:00 | 00:00:00 | |
| LZ4TU-5 | 2026-09-01 01:14:54 | 46.41173 | 20.99158 | 329° | 15km/h | 21406m | -18.0m/s | -54.3°C | 0% | 47.2hPa | 2.6V | 00:00:00 | 00:00:00 | 00:00:00 | |
| 9A1FER-3 | 2026-09-01 01:14:24 | 46.41120 | 20.99151 | 3° | 13km/h | 22014m | -21.5m/s | -53.8°C | 4.0% | 42.9hPa | 2.6V | 00:00:00 | 02:24:57 | 00:00:00 | |
| GYPAP8-17 | 2026-09-01 01:14:11 | 46.41136 | 20.99127 | 173° | 16km/h | 22241m | -20.6m/s | -54.0°C | 1.0% | 41.5hPa | 2.6V | 08:24:00 | 00:00:00 | 00:00:00 | |
| 9A1FER-3 | 2026-09-01 01:13:39 | 46.41087 | 20.99198 | 71° | 11km/h | 22924m | -19.0m/s | -54.0°C | 4.1% | 37.3hPa | 2.6V | 00:00:00 | 02:24:12 | 00:00:00 | |
| LZ4TU-5 | 2026-09-01 01:13:38 | 46.41087 | 20.99198 | 72° | 11km/h | 22924m | -19.0m/s | -54.0°C | 1.0% | 37.3hPa | 2.6V | 00:00:00 | 00:00:00 | 00:00:00 | |
| LZ4TU-5 | 2026-09-01 01:13:33 | 46.41091 | 20.99175 | 118° | 15km/h | 23030m | -22.4m/s | -53.9°C | 1.0% | 36.7hPa | 2.6V | 00:00:00 | 00:00:00 | 00:00:00 | |
| 9A1FER-3 | 2026-09-01 01:13:24 | 46.41100 | 20.99151 | 196° | 20km/h | 23260m | -21.0m/s | -54.3°C | 4.3% | 35.3hPa | 2.6V | 08:25:00 | 02:23:57 | 00:00:00 | |
| 9A1FER-3 | 2026-09-01 01:13:07 | 46.41030 | 20.99152 | 10° | 11km/h | 23622m | -20.2m/s | -53.9°C | 4.2% | 33.4hPa | 2.5V | 00:00:00 | 02:23:40 | 00:00:00 | |
| GYPAP8-17 | 2026-09-01 01:12:56 | 46.41006 | 20.99156 | 15° | 11km/h | 23834m | -20.8m/s | -53.4°C | 1.0% | 32.3hPa | 2.5V | 00:00:00 | 00:00:00 | 00:00:00 | |
| 9A1FER-3 | 2026-09-01 01:12:52 | 46.40997 | 20.99158 | 336° | 5km/h | 23938m | -21.4m/s | -53.0°C | 4.0% | 31.7hPa | 2.5V | 00:00:00 | 02:23:25 | 00:00:00 | |
| 9A1FER-3 | 2026-09-01 01:11:48 | 46.40895 | 20.99142 | 141° | 13km/h | 25441m | -24.3m/s | -51.2°C | 3.6% | 25.1hPa | 2.5V | 00:00:00 | 02:22:21 | 00:00:00 | |
| LZ4TU-5 | 2026-09-01 01:10:48 | 46.40965 | 20.99091 | 357° | 20km/h | 26704m | -26.1m/s | -50.4°C | 0.8% | 20.7hPa | 2.5V | 00:00:00 | 00:00:00 | 00:00:00 | |
| LZ4TU-5 | 2026-09-01 01:10:43 | 46.40941 | 20.99082 | 16° | 15km/h | 26825m | -21.9m/s | -50.1°C | 0% | 20.3hPa | 2.5V | 00:00:00 | 00:00:00 | 00:00:00 | |
| GYPAP8-17 | 2026-09-01 01:10:37 | 46.40925 | 20.99076 | 43° | 11km/h | 26960m | -24.3m/s | -50.2°C | 0.8% | 19.9hPa | 2.5V | 00:00:00 | 00:00:00 | 00:00:00 | |
| 9A1FER-3 | 2026-09-01 01:09:48 | 46.40886 | 20.98998 | 107° | 11km/h | 28359m | -30.5m/s | -46.3°C | 3.0% | 16.0hPa | 2.5V | 00:00:00 | 02:20:21 | 00:00:00 | |
| 9A1FER-3 | 2026-09-01 01:09:33 | 46.40917 | 20.98953 | 142° | 18km/h | 28834m | -30.7m/s | -46.5°C | 3.1% | 14.9hPa | 2.5V | 00:00:00 | 02:20:06 | 00:00:00 | |
| 9A1FER-3 | 2026-09-01 01:09:18 | 46.40968 | 20.98920 | 312° | 13km/h | 29286m | -31.3m/s | -45.5°C | 3.0% | 13.9hPa | 2.5V | 00:00:00 | 02:19:51 | 00:00:00 | |
| 9A1FER-3 | 2026-09-01 01:09:03 | 46.40951 | 20.98880 | 187° | 9km/h | 29741m | -36.3m/s | -45.0°C | 3.1% | 13.0hPa | 2.6V | 00:00:00 | 02:19:36 | 00:00:00 | |
| 9A1FER-3 | 2026-09-01 01:08:48 | 46.40938 | 20.98875 | 42° | 27km/h | 30294m | -34.6m/s | -42.7°C | 2.7% | 11.9hPa | 2.6V | 00:00:00 | 02:19:21 | 00:00:00 | |
| 9A1FER-10 | 2026-09-01 01:08:42 | 46.40922 | 20.98838 | 76° | 27km/h | 30493m | -27.4m/s | 0°C | 0% | 0hPa | 2.6V | 00:00:00 | 02:19:15 | 00:00:00 | |
| 9A1FER-3 | 2026-09-01 01:08:33 | 46.40903 | 20.98732 | 88° | 18km/h | 30707m | -21.5m/s | -41.1°C | 2.6% | 11.2hPa | 2.6V | 00:00:00 | 02:19:06 | 08:30:00 | |
| 9A1FER-3 | 2026-09-01 01:08:18 | 46.40944 | 20.98678 | 167° | 24km/h | 31159m | -27.2m/s | -39.4°C | 2.1% | 10.4hPa | 2.6V | 00:00:00 | 02:18:51 | 00:00:00 | |
| 9A1FER-3 | 2026-09-01 01:08:03 | 46.40984 | 20.98782 | 152° | 16km/h | 31240m | 5.9m/s | -39.4°C | 2.1% | 10.3hPa | 2.6V | 00:00:00 | 02:18:36 | 00:00:00 | |
| 9A1FER-3 | 2026-09-01 01:07:48 | 46.41012 | 20.98824 | 167° | 18km/h | 31157m | 5.2m/s | -39.6°C | 2.2% | 10.4hPa | 2.6V | 00:00:00 | 02:18:21 | 00:00:00 | |
| 9A1FER-3 | 2026-09-01 01:07:33 | 46.41054 | 20.98843 | 194° | 24km/h | 31075m | 5.4m/s | -39.9°C | 2.2% | 10.5hPa | 2.5V | 00:00:00 | 02:18:06 | 00:00:00 | |
| 9A1FER-3 | 2026-09-01 01:07:18 | 46.41098 | 20.98809 | 146° | 15km/h | 31002m | 5.8m/s | -40.2°C | 2.2% | 10.6hPa | 2.5V | 00:00:00 | 02:17:51 | 00:00:00 | |
| 9A1FER-3 | 2026-09-01 01:07:03 | 46.41129 | 20.98755 | 200° | 22km/h | 30931m | 6.1m/s | -40.7°C | 2.3% | 10.8hPa | 2.5V | 00:00:00 | 02:17:36 | 00:00:00 | |
| 9A1FER-3 | 2026-09-01 01:06:48 | 46.41162 | 20.98686 | 194° | 37km/h | 30854m | 4.2m/s | -40.3°C | 2.3% | 10.9hPa | 2.5V | 00:00:00 | 02:17:21 | 00:00:00 | |
| 9A1FER-3 | 2026-09-01 01:06:33 | 46.41197 | 20.98568 | 147° | 35km/h | 30784m | 4.3m/s | -40.1°C | 2.2% | 11.0hPa | 2.5V | 00:00:00 | 02:17:06 | 00:00:00 | |
| 9A1FER-3 | 2026-09-01 01:06:18 | 46.41202 | 20.98403 | 117° | 44km/h | 30714m | 4.6m/s | -41.5°C | 2.4% | 11.1hPa | 2.5V | 00:00:00 | 02:16:51 | 08:30:00 | |
| 9A1FER-3 | 2026-09-01 01:06:03 | 46.41184 | 20.98191 | 96° | 33km/h | 30638m | 6.0m/s | -41.8°C | 2.4% | 11.3hPa | 2.6V | 00:00:00 | 02:16:36 | 00:00:00 | |
| 9A1FER-3 | 2026-09-01 01:05:48 | 46.41153 | 20.98028 | 74° | 27km/h | 30569m | 4.9m/s | -41.9°C | 2.4% | 11.4hPa | 2.6V | 00:00:00 | 02:16:21 | 00:00:00 | |
| 9A1FER-3 | 2026-09-01 01:05:34 | 46.41096 | 20.97903 | 50° | 24km/h | 30499m | 4.5m/s | -42.0°C | 2.4% | 11.5hPa | 2.6V | 00:00:00 | 02:16:06 | 00:00:00 | |
| 9A1FER-3 | 2026-09-01 01:05:18 | 46.41037 | 20.97819 | 56° | 31km/h | 30432m | 5.9m/s | -42.8°C | 2.5% | 11.6hPa | 2.5V | 00:00:00 | 02:15:51 | 00:00:00 | |
| 9A1FER-3 | 2026-09-01 01:05:03 | 46.40970 | 20.97715 | 112° | 22km/h | 30359m | 3.5m/s | -42.9°C | 2.5% | 11.8hPa | 2.5V | 00:00:00 | 02:15:36 | 00:00:00 | |
| 9A1FER-3 | 2026-09-01 01:04:48 | 46.40929 | 20.97686 | 96° | 18km/h | 30292m | 4.5m/s | -43.1°C | 2.5% | 11.8hPa | 2.5V | 00:00:00 | 02:15:21 | 00:00:00 | |
| 9A1FER-3 | 2026-09-01 01:04:33 | 46.40897 | 20.97649 | 5° | 11km/h | 30222m | 4.1m/s | -43.5°C | 2.6% | 12.0hPa | 2.5V | 00:00:00 | 02:15:06 | 00:00:00 | |
| 9A1FER-3 | 2026-09-01 01:04:18 | 46.40872 | 20.97653 | 305° | 15km/h | 30149m | 4.1m/s | -43.7°C | 2.6% | 12.1hPa | 2.5V | 00:00:00 | 02:14:51 | 00:00:00 | |
| LZ4TU-5 | 2026-09-01 01:04:06 | 46.40849 | 20.97672 | 353° | 7km/h | 30103m | 4.7m/s | -43.8°C | 0.6% | 12.3hPa | 2.5V | 00:00:00 | 00:00:00 | 00:00:00 | |
| 9A1FER-3 | 2026-09-01 01:04:03 | 46.40840 | 20.97690 | 296° | 13km/h | 30081m | 4.9m/s | -43.7°C | 2.6% | 12.3hPa | 2.5V | 00:00:00 | 02:14:36 | 08:30:00 | |
| LZ4TU-5 | 2026-09-01 01:04:01 | 46.40838 | 20.97697 | 297° | 22km/h | 30076m | 3.9m/s | -43.8°C | 0.6% | 12.3hPa | 2.6V | 00:00:00 | 00:00:00 | 00:00:00 | |
| 9A1FER-3 | 2026-09-01 01:03:48 | 46.40821 | 20.97714 | 308° | 15km/h | 30014m | 4.6m/s | -44.1°C | 2.7% | 12.4hPa | 2.6V | 00:00:00 | 02:14:21 | 00:00:00 | |
| 9A1FER-3 | 2026-09-01 01:03:33 | 46.40864 | 20.97754 | 267° | 11km/h | 29935m | 5.7m/s | -44.0°C | 2.7% | 12.5hPa | 2.6V | 00:00:00 | 02:14:06 | 00:00:00 | |
| 9A1FER-3 | 2026-09-01 01:03:18 | 46.40886 | 20.97758 | 6° | 13km/h | 29862m | 4.8m/s | -44.0°C | 2.6% | 12.7hPa | 2.6V | 00:00:00 | 02:13:51 | 00:00:00 | |
| 9A1FER-3 | 2026-09-01 01:03:03 | 46.40881 | 20.97723 | 55° | 18km/h | 29784m | 4.8m/s | -44.5°C | 2.7% | 12.8hPa | 2.6V | 00:00:00 | 02:13:36 | 00:00:00 | |
| 9A1FER-3 | 2026-09-01 01:02:48 | 46.40854 | 20.97645 | 56° | 18km/h | 29710m | 5.7m/s | -45.4°C | 2.8% | 13.0hPa | 2.6V | 00:00:00 | 02:13:21 | 00:00:00 | |
| 9A1FER-3 | 2026-09-01 01:02:18 | 46.40806 | 20.97498 | 23° | 15km/h | 29560m | 5.4m/s | -45.3°C | 2.9% | 13.3hPa | 2.6V | 00:00:00 | 02:12:51 | 00:00:00 | |
| 9A1FER-3 | 2026-09-01 01:02:03 | 46.40768 | 20.97463 | 27° | 5km/h | 29485m | 5.6m/s | -45.1°C | 2.8% | 13.4hPa | 2.6V | 00:00:00 | 02:12:36 | 00:00:00 | |
| 9A1FER-3 | 2026-09-01 01:01:48 | 46.40758 | 20.97453 | 206° | 7km/h | 29410m | 4.5m/s | -44.7°C | 2.8% | 13.6hPa | 2.6V | 00:00:00 | 02:12:21 | 08:30:00 | |
| 9A1FER-3 | 2026-09-01 01:01:33 | 46.40754 | 20.97436 | 32° | 9km/h | 29331m | 5.1m/s | -44.8°C | 2.8% | 13.7hPa | 2.5V | 00:00:00 | 02:12:06 | 00:00:00 | |
| 9A1FER-3 | 2026-09-01 01:01:17 | 46.40722 | 20.97442 | 330° | 11km/h | 29249m | 5.5m/s | -44.9°C | 2.8% | 13.9hPa | 2.5V | 00:00:00 | 02:11:50 | 00:00:00 | |
| 9A1FER-3 | 2026-09-01 01:01:02 | 46.40722 | 20.97408 | 318° | 15km/h | 29182m | 3.3m/s | -44.8°C | 2.8% | 14.1hPa | 2.5V | 00:00:00 | 02:11:35 | 00:00:00 | |
| 9A1FER-3 | 2026-09-01 01:00:47 | 46.40755 | 20.97352 | 188° | 24km/h | 29102m | 4.8m/s | -44.5°C | 2.7% | 14.2hPa | 2.5V | 00:00:00 | 02:11:20 | 00:00:00 | |
| 9A1FER-3 | 2026-09-01 01:00:32 | 46.40812 | 20.97312 | 197° | 27km/h | 29034m | 3.6m/s | -44.5°C | 2.8% | 14.4hPa | 2.5V | 00:00:00 | 02:11:05 | 00:00:00 | |
| 9A1FER-3 | 2026-09-01 01:00:18 | 46.40900 | 20.97257 | 175° | 33km/h | 28963m | 4.4m/s | -44.6°C | 2.7% | 14.5hPa | 2.5V | 00:00:00 | 02:10:50 | 00:00:00 | |
| 9A1FER-3 | 2026-09-01 01:00:02 | 46.40988 | 20.97181 | 158° | 26km/h | 28892m | 6.1m/s | -45.1°C | 2.8% | 14.7hPa | 2.6V | 00:00:00 | 02:10:35 | 00:00:00 | |
| GYPAP8-17 | 2026-09-01 01:00:00 | 46.40995 | 20.97179 | 171° | 31km/h | 28886m | 6.0m/s | -45.1°C | 0.7% | 14.8hPa | 2.6V | 00:00:00 | 00:00:00 | 00:00:00 | |
| LZ4TU-5 | 2026-09-01 00:59:50 | 46.41049 | 20.97129 | 114° | 22km/h | 28838m | 5.4m/s | -45.3°C | 0.7% | 14.9hPa | 2.6V | 00:00:00 | 00:00:00 | 00:00:00 | |
| 9A1FER-3 | 2026-09-01 00:59:47 | 46.41059 | 20.97116 | 169° | 24km/h | 28816m | 4.8m/s | -45.3°C | 2.8% | 14.9hPa | 2.6V | 00:00:00 | 02:10:20 | 00:00:00 | |
| GYPAP8-17 | 2026-09-01 00:59:40 | 46.41105 | 20.97084 | 138° | 35km/h | 28786m | 3.0m/s | -45.5°C | 0.7% | 15.0hPa | 2.6V | 00:00:00 | 00:00:00 | 00:00:00 | |
| 9A1FER-3 | 2026-09-01 00:59:32 | 46.41111 | 20.97062 | 174° | 16km/h | 28741m | 5.9m/s | -45.5°C | 2.9% | 15.1hPa | 2.6V | 00:00:00 | 02:10:05 | 08:30:00 | |
| 9A1FER-3 | 2026-09-01 00:59:17 | 46.41138 | 20.97043 | 147° | 7km/h | 28663m | 5.9m/s | -45.5°C | 2.9% | 15.2hPa | 2.6V | 00:00:00 | 02:09:50 | 00:00:00 | |
| 9A1FER-3 | 2026-09-01 00:59:02 | 46.41150 | 20.97018 | 132° | 11km/h | 28586m | 5.9m/s | -45.3°C | 2.9% | 15.4hPa | 2.6V | 00:00:00 | 02:09:35 | 00:00:00 | |
| 9A1FER-3 | 2026-09-01 00:58:47 | 46.41173 | 20.96998 | 154° | 18km/h | 28505m | 5.8m/s | -45.4°C | 2.9% | 15.6hPa | 2.6V | 00:00:00 | 02:09:20 | 00:00:00 | |
| GYPAP8-17 | 2026-09-01 00:58:37 | 46.41180 | 20.96968 | 207° | 16km/h | 28455m | 4.2m/s | -45.7°C | 0.7% | 15.8hPa | 2.6V | 00:00:00 | 00:00:00 | 00:00:00 | |
| 9A1FER-3 | 2026-09-01 00:58:32 | 46.41209 | 20.96937 | 111° | 20km/h | 28424m | 3.6m/s | -45.7°C | 3.0% | 15.8hPa | 2.6V | 00:00:00 | 02:09:05 | 00:00:00 | |
| 9A1FER-3 | 2026-09-01 00:58:17 | 46.41239 | 20.96861 | 122° | 16km/h | 28352m | 3.4m/s | -45.6°C | 2.9% | 16.0hPa | 2.6V | 00:00:00 | 02:08:50 | 00:00:00 | |
| LZ4TU-5 | 2026-09-01 00:58:14 | 46.41245 | 20.96851 | 143° | 13km/h | 28344m | 5.0m/s | -45.7°C | 0.8% | 16.0hPa | 2.6V | 00:00:00 | 00:00:00 | 00:00:00 | |
| LZ4TU-5 | 2026-09-01 00:58:11 | 46.41249 | 20.96848 | 59° | 4km/h | 28322m | 5.6m/s | -45.6°C | 0.7% | 16.1hPa | 2.6V | 00:00:00 | 00:00:00 | 00:00:00 | |
| 9A1FER-3 | 2026-09-01 00:58:02 | 46.41242 | 20.96791 | 144° | 20km/h | 28278m | 3.3m/s | -45.6°C | 3.0% | 16.1hPa | 2.6V | 00:00:00 | 02:08:35 | 00:00:00 | |
| 9A1FER-3 | 2026-09-01 00:57:47 | 46.41247 | 20.96719 | 206° | 22km/h | 28205m | 4.4m/s | -45.4°C | 2.9% | 16.3hPa | 2.6V | 00:00:00 | 02:08:20 | 00:00:00 | |
| 9A1FER-3 | 2026-09-01 00:57:32 | 46.41220 | 20.96697 | 305° | 11km/h | 28133m | 5.1m/s | -45.6°C | 2.9% | 16.5hPa | 2.6V | 00:00:00 | 02:08:05 | 00:00:00 | |
| 9A1FER-3 | 2026-09-01 00:57:17 | 46.41203 | 20.96712 | 299° | 13km/h | 28064m | 4.7m/s | -45.8°C | 2.9% | 16.7hPa | 2.6V | 00:00:00 | 02:07:50 | 08:30:00 | |
| GYPAP8-17 | 2026-09-01 00:57:09 | 46.41190 | 20.96740 | 29° | 11km/h | 28038m | 5.2m/s | -45.8°C | 0.7% | 16.8hPa | 2.6V | 00:00:00 | 00:00:00 | 00:00:00 | |
| 9A1FER-3 | 2026-09-01 00:57:02 | 46.41190 | 20.96721 | 238° | 13km/h | 27998m | 3.9m/s | -46.0°C | 2.9% | 16.9hPa | 2.6V | 00:00:00 | 02:07:35 | 00:00:00 | |
| 9A1FER-3 | 2026-09-01 00:56:47 | 46.41192 | 20.96693 | 187° | 9km/h | 27932m | 5.8m/s | -46.0°C | 2.9% | 17.0hPa | 2.6V | 00:00:00 | 02:07:20 | 00:00:00 | |
| 9A1FER-3 | 2026-09-01 00:56:32 | 46.41193 | 20.96681 | 224° | 11km/h | 27873m | 4.6m/s | -46.6°C | 3.0% | 17.2hPa | 2.6V | 00:00:00 | 02:07:05 | 00:00:00 | |
| 9A1FER-3 | 2026-09-01 00:56:15 | 46.41202 | 20.96674 | 160° | 16km/h | 27805m | 4.1m/s | -47.1°C | 3.1% | 17.4hPa | 2.6V | 00:00:00 | 02:06:48 | 00:00:00 | |
| LZ4TU-5 | 2026-09-01 00:56:08 | 46.41193 | 20.96634 | 63° | 24km/h | 27783m | 3.1m/s | -47.3°C | 0.7% | 17.5hPa | 2.6V | 00:00:00 | 00:00:00 | 00:00:00 | |
| GYPAP8-17 | 2026-09-01 00:56:06 | 46.41191 | 20.96625 | 227° | 9km/h | 27771m | 4.2m/s | -47.5°C | 0.8% | 17.5hPa | 2.6V | 00:00:00 | 00:00:00 | 00:00:00 | |
| LZ4TU-5 | 2026-09-01 00:56:04 | 46.41197 | 20.96635 | 236° | 22km/h | 27762m | 5.2m/s | -47.6°C | 0.8% | 17.5hPa | 2.6V | 00:00:00 | 00:00:00 | 00:00:00 | |
| 9A1FER-3 | 2026-09-01 00:56:00 | 46.41208 | 20.96653 | 169° | 11km/h | 27744m | 3.4m/s | -47.7°C | 3.1% | 17.5hPa | 2.6V | 00:00:00 | 02:06:33 | 00:00:00 | |
| 9A1FER-3 | 2026-09-01 00:55:45 | 46.41220 | 20.96640 | 95° | 9km/h | 27684m | 4.6m/s | -48.4°C | 3.2% | 17.7hPa | 2.6V | 00:00:00 | 02:06:18 | 00:00:00 | |
| 9A1FER-3 | 2026-09-01 00:55:30 | 46.41219 | 20.96654 | 31° | 15km/h | 27629m | 4.7m/s | -49.0°C | 3.4% | 17.8hPa | 2.5V | 00:00:00 | 02:06:03 | 00:00:00 | |
| 9A1FER-3 | 2026-09-01 00:55:15 | 46.41201 | 20.96651 | 165° | 13km/h | 27564m | 3.9m/s | -49.3°C | 3.4% | 18.0hPa | 2.5V | 00:00:00 | 02:05:48 | 00:00:00 | |
| 9A1FER-3 | 2026-09-01 00:54:57 | 46.41191 | 20.96618 | 213° | 7km/h | 27487m | 5.0m/s | -49.4°C | 3.4% | 18.2hPa | 2.5V | 00:00:00 | 02:05:30 | 08:30:00 | |
| 9A1FER-3 | 2026-09-01 00:54:42 | 46.41203 | 20.96612 | 241° | 9km/h | 27418m | 3.9m/s | -49.9°C | 3.5% | 18.4hPa | 2.5V | 00:00:00 | 02:05:15 | 00:00:00 | |
| 9A1FER-3 | 2026-09-01 00:54:26 | 46.41220 | 20.96624 | 250° | 13km/h | 27352m | 3.0m/s | -49.9°C | 3.5% | 18.6hPa | 2.5V | 00:00:00 | 02:04:59 | 00:00:00 | |
| 9A1FER-3 | 2026-09-01 00:54:11 | 46.41247 | 20.96597 | 311° | 11km/h | 27284m | 6.1m/s | -50.1°C | 3.5% | 18.8hPa | 2.5V | 00:00:00 | 02:04:44 | 00:00:00 | |
| 9A1FER-3 | 2026-09-01 00:53:56 | 46.41244 | 20.96582 | 43° | 13km/h | 27211m | 6.9m/s | -50.1°C | 3.5% | 19.0hPa | 0V | 00:00:00 | 02:04:29 | 00:00:00 | |
| 9A1FER-3 | 2026-09-01 00:53:41 | 46.41225 | 20.96532 | 82° | 9km/h | 27138m | 4.6m/s | 0°C | 0% | 0hPa | 0V | 00:00:00 | 02:04:14 | 00:00:00 | |
| 9A1FER-3 | 2026-09-01 00:53:26 | 46.41216 | 20.96499 | 26° | 13km/h | 27072m | 7.0m/s | 0°C | 0% | 0hPa | 0V | 00:00:00 | 02:03:59 | 00:00:00 | |
| LZ4TU-5 | 2026-09-01 00:53:19 | 46.41229 | 20.96469 | 135° | 16km/h | 27044m | 4.3m/s | -50.2°C | 0.9% | 19.6hPa | 0V | 00:00:00 | 00:00:00 | 00:00:00 | |
| 9A1FER-3 | 2026-09-01 00:53:11 | 46.41217 | 20.96449 | 56° | 16km/h | 26996m | 4.3m/s | 0°C | 0% | 0hPa | 0V | 00:00:00 | 02:03:44 | 00:00:00 | |
| 9A1FER-3 | 2026-09-01 00:52:56 | 46.41171 | 20.96397 | 36° | 18km/h | 26929m | 3.7m/s | 0°C | 0% | 0hPa | 0V | 00:00:00 | 02:03:29 | 00:00:00 | |
| LZ4TU-5 | 2026-09-01 00:51:30 | 46.40980 | 20.96510 | 226° | 24km/h | 26524m | 4.2m/s | -49.7°C | 0.9% | 21.2hPa | 0V | 00:00:00 | 00:00:00 | 00:00:00 | |
| LZ4TU-5 | 2026-09-01 00:51:26 | 46.40993 | 20.96540 | 253° | 20km/h | 26513m | 4.6m/s | -49.6°C | 0.9% | 21.3hPa | 0V | 00:00:00 | 00:00:00 | 00:00:00 | |
| 9A1FER-3 | 2026-09-01 00:50:51 | 46.41145 | 20.96512 | 160° | 22km/h | 26337m | 2.2m/s | 0°C | 0% | 0hPa | 0V | 00:00:00 | 02:01:24 | 08:30:00 | |
| 9A1FER-3 | 2026-09-01 00:50:34 | 46.41225 | 20.96437 | 147° | 15km/h | 26261m | 3.0m/s | 0°C | 0% | 0hPa | 0V | 00:00:00 | 02:01:07 | 00:00:00 | |
| 9A1FER-3 | 2026-09-01 00:50:19 | 46.41257 | 20.96381 | 144° | 16km/h | 26189m | 5.2m/s | 0°C | 0% | 0hPa | 0V | 00:00:00 | 02:00:52 | 00:00:00 | |
| 9A1FER-3 | 2026-09-01 00:50:03 | 46.41276 | 20.96301 | 92° | 13km/h | 26115m | 5.3m/s | 0°C | 0% | 0hPa | 0V | 00:00:00 | 02:00:36 | 00:00:00 | |
| LZ4TU-5 | 2026-09-01 00:49:04 | 46.41170 | 20.96197 | 131° | 7km/h | 25834m | 6.2m/s | -50.5°C | 0.9% | 23.6hPa | 0V | 00:00:00 | 00:00:00 | 00:00:00 | |
| LZ4TU-5 | 2026-09-01 00:49:00 | 46.41174 | 20.96189 | 123° | 9km/h | 25816m | 4.1m/s | -50.6°C | 0.9% | 23.7hPa | 0V | 00:00:00 | 00:00:00 | 00:00:00 | |
| LZ4TU-5 | 2026-09-01 00:46:00 | 46.41287 | 20.95875 | 4° | 7km/h | 24983m | 4.6m/s | -52.4°C | 1.0% | 26.9hPa | 0V | 00:00:00 | 00:00:00 | 00:00:00 | |
| GYPAP8-17 | 2026-09-01 00:45:57 | 46.41282 | 20.95869 | 75° | 7km/h | 24969m | 4.7m/s | -52.6°C | 1.0% | 27.0hPa | 0V | 00:00:00 | 00:00:00 | 00:00:00 | |
| GYPAP8-17 | 2026-09-01 00:44:35 | 46.41160 | 20.95750 | 34° | 20km/h | 24596m | 1.9m/s | -52.2°C | 1.0% | 28.6hPa | 0V | 00:00:00 | 00:00:00 | 00:00:00 | |
| LZ4TU-5 | 2026-09-01 00:41:56 | 46.40882 | 20.95682 | 350° | 11km/h | 23867m | 2.8m/s | -52.9°C | 1.1% | 32.1hPa | 0V | 00:00:00 | 00:00:00 | 00:00:00 | |
| LZ4TU-5 | 2026-09-01 00:39:55 | 46.40390 | 20.95763 | 332° | 11km/h | 23328m | 6.3m/s | -54.0°C | 1.2% | 34.9hPa | 0V | 00:00:00 | 00:00:00 | 00:00:00 | |
| 9A1FER-3 | 2026-09-01 00:39:49 | 46.40382 | 20.95774 | 324° | 4km/h | 23295m | 6.7m/s | 0°C | 0% | 0hPa | 0V | 00:00:00 | 01:50:22 | 00:00:00 | |
| 9A1FER-3 | 2026-09-01 00:39:34 | 46.40374 | 20.95769 | 74° | 9km/h | 23225m | 4.3m/s | 0°C | 0% | 0hPa | 0V | 00:00:00 | 01:50:07 | 00:00:00 | |
| 9A1FER-3 | 2026-09-01 00:39:08 | 46.40384 | 20.95688 | 119° | 13km/h | 23111m | 3.7m/s | 0°C | 0% | 0hPa | 0V | 00:00:00 | 01:49:41 | 00:00:00 | |
| 9A1FER-3 | 2026-09-01 00:38:48 | 46.40385 | 20.95587 | 71° | 11km/h | 23018m | 3.3m/s | 0°C | 0% | 0hPa | 0V | 00:00:00 | 01:49:21 | 00:00:00 | |
| GYPAP8-17 | 2026-09-01 00:38:24 | 46.40353 | 20.95525 | 28° | 7km/h | 22919m | 5.4m/s | -53.4°C | 1.1% | 37.2hPa | 0V | 00:00:00 | 00:00:00 | 00:00:00 | |
| 9A1FER-3 | 2026-09-01 00:38:18 | 46.40332 | 20.95514 | 18° | 16km/h | 22888m | 4.6m/s | 0°C | 0% | 0hPa | 0V | 00:00:00 | 01:48:51 | 00:00:00 | |
| LZ4TU-5 | 2026-09-01 00:38:01 | 46.40273 | 20.95494 | 360° | 20km/h | 22822m | 4.9m/s | -53.7°C | 1.1% | 37.8hPa | 0V | 00:00:00 | 00:00:00 | 00:00:00 | |
| LZ4TU-5 | 2026-09-01 00:37:57 | 46.40253 | 20.95495 | 356° | 22km/h | 22803m | 2.6m/s | -53.7°C | 1.1% | 37.9hPa | 0V | 00:00:00 | 00:00:00 | 00:00:00 | |
| GYPAP8-17 | 2026-09-01 00:37:10 | 46.39999 | 20.95622 | 318° | 18km/h | 22604m | 5.9m/s | -53.9°C | 1.2% | 39.1hPa | 0V | 00:00:00 | 00:00:00 | 00:00:00 | |
| LZ4TU-5 | 2026-09-01 00:36:03 | 46.39997 | 20.95904 | 185° | 16km/h | 22322m | 5.4m/s | -54.1°C | 1.2% | 40.8hPa | 0V | 00:00:00 | 00:00:00 | 00:00:00 | |
| LZ4TU-5 | 2026-09-01 00:34:08 | 46.39985 | 20.95969 | 23° | 7km/h | 21783m | 3.9m/s | -53.6°C | 1.1% | 44.4hPa | 0V | 00:00:00 | 00:00:00 | 00:00:00 | |
| GYPAP8-17 | 2026-09-01 00:32:19 | 46.39832 | 20.96079 | 303° | 5km/h | 21345m | 4.7m/s | -54.7°C | 1.2% | 47.6hPa | 0V | 00:00:00 | 00:00:00 | 00:00:00 | |
| LZ4TU-5 | 2026-09-01 00:32:14 | 46.39822 | 20.96095 | 323° | 13km/h | 21327m | 4.8m/s | -54.6°C | 1.2% | 47.7hPa | 0V | 00:00:00 | 00:00:00 | 00:00:00 | |
| LZ4TU-5 | 2026-09-01 00:30:24 | 46.39914 | 20.96128 | 60° | 7km/h | 20880m | 5.9m/s | -54.9°C | 0% | 51.2hPa | 0V | 00:00:00 | 00:00:00 | 00:00:00 | |
| LZ4TU-5 | 2026-09-01 00:30:20 | 46.39907 | 20.96111 | 64° | 18km/h | 20862m | 4.1m/s | -55.0°C | 0% | 51.3hPa | 0V | 00:00:00 | 00:00:00 | 00:00:00 | |
| LZ4TU-5 | 2026-09-01 00:28:31 | 46.39713 | 20.95569 | 67° | 16km/h | 20380m | 4.8m/s | -54.6°C | 0% | 55.3hPa | 0V | 00:00:00 | 00:00:00 | 00:00:00 | |
| LZ4TU-5 | 2026-09-01 00:28:27 | 46.39704 | 20.95549 | 59° | 18km/h | 20365m | 4.3m/s | -54.6°C | 0% | 55.5hPa | 0V | 00:00:00 | 00:00:00 | 00:00:00 | |
| GYPAP8-17 | 2026-09-01 00:27:50 | 46.39630 | 20.95403 | 70° | 13km/h | 20216m | 4.6m/s | -55.5°C | 1.3% | 56.8hPa | 0V | 00:00:00 | 00:00:00 | 00:00:00 | |
| LZ4TU-5 | 2026-09-01 00:26:02 | 46.39388 | 20.94804 | 60° | 29km/h | 19792m | 5.2m/s | -56.1°C | 0% | 60.7hPa | 0V | 00:00:00 | 00:00:00 | 00:00:00 | |
| LZ4TU-5 | 2026-09-01 00:24:15 | 46.38866 | 20.94328 | 44° | 27km/h | 19322m | 3.8m/s | -57.2°C | 0% | 65.4hPa | 0V | 00:00:00 | 00:00:00 | 00:00:00 | |
| LZ4TU-5 | 2026-09-01 00:24:11 | 46.38845 | 20.94291 | 57° | 38km/h | 19305m | 5.6m/s | -57.4°C | 0% | 65.5hPa | 0V | 00:00:00 | 00:00:00 | 00:00:00 | |
| LZ4TU-5 | 2026-09-01 00:22:26 | 46.38288 | 20.93525 | 50° | 13km/h | 18903m | 3.3m/s | -56.6°C | 0% | 69.8hPa | 0V | 00:00:00 | 00:00:00 | 00:00:00 | |
| LZ4TU-5 | 2026-09-01 00:22:22 | 46.38280 | 20.93511 | 38° | 9km/h | 18887m | 2.9m/s | -56.8°C | 0% | 70.0hPa | 0V | 00:00:00 | 00:00:00 | 00:00:00 | |
| LZ4TU-5 | 2026-09-01 00:20:34 | 46.38115 | 20.93296 | 128° | 15km/h | 18449m | 3.6m/s | -56.7°C | 0% | 75.0hPa | 0V | 00:00:00 | 00:00:00 | 00:00:00 | |
| LZ4TU-5 | 2026-09-01 00:20:30 | 46.38125 | 20.93285 | 167° | 11km/h | 18432m | 4.4m/s | -56.5°C | 0% | 75.2hPa | 0V | 00:00:00 | 00:00:00 | 00:00:00 | |
| GYPAP8-17 | 2026-09-01 00:19:36 | 46.38292 | 20.93051 | 125° | 37km/h | 18182m | 5.9m/s | -55.0°C | 1.4% | 78.3hPa | 0V | 00:00:00 | 00:00:00 | 00:00:00 | |
| LZ4TU-5 | 2026-09-01 00:18:45 | 46.38489 | 20.92525 | 101° | 29km/h | 17951m | 5.6m/s | -56.3°C | 0% | 81.2hPa | 0V | 00:00:00 | 00:00:00 | 00:00:00 | |
| LZ4TU-5 | 2026-09-01 00:18:40 | 46.38494 | 20.92478 | 98° | 33km/h | 17934m | 4.3m/s | -56.2°C | 0% | 81.4hPa | 0V | 00:00:00 | 00:00:00 | 00:00:00 | |
| GYPAP8-17 | 2026-09-01 00:17:49 | 46.38512 | 20.91823 | 83° | 40km/h | 17718m | 2.2m/s | -55.4°C | 1.5% | 84.2hPa | 0V | 00:00:00 | 00:00:00 | 00:00:00 | |
| LZ4TU-5 | 2026-09-01 00:16:43 | 46.38291 | 20.91072 | 51° | 31km/h | 17437m | 5.7m/s | -56.1°C | 0% | 87.9hPa | 0V | 00:00:00 | 00:00:00 | 00:00:00 | |
| LZ4TU-5 | 2026-09-01 00:14:50 | 46.37862 | 20.89954 | 68° | 33km/h | 16899m | 0.9m/s | -56.0°C | 0% | 95.7hPa | 0V | 00:00:00 | 00:00:00 | 00:00:00 | |
| GYPAP8-17 | 2026-09-01 00:14:07 | 46.37906 | 20.89289 | 99° | 57km/h | 16690m | 4.0m/s | -57.3°C | 1.9% | 98.9hPa | 0V | 00:00:00 | 00:00:00 | 00:00:00 | |
| LZ4TU-5 | 2026-09-01 00:13:00 | 46.37942 | 20.87898 | 103° | 53km/h | 16420m | 4.3m/s | -59.5°C | 0% | 103.3hPa | 0V | 00:00:00 | 00:00:00 | 00:00:00 | |
| LZ4TU-5 | 2026-09-01 00:11:11 | 46.37443 | 20.85236 | 72° | 69km/h | 15908m | 4.0m/s | -60.0°C | 0% | 112.1hPa | 0V | 00:00:00 | 00:00:00 | 00:00:00 | |
| GYPAP8-17 | 2026-09-01 00:10:12 | 46.37164 | 20.83991 | 80° | 69km/h | 15559m | 5.4m/s | -59.9°C | 4.1% | 118.6hPa | 0V | 00:00:00 | 00:00:00 | 00:00:00 | |
| LZ4TU-5 | 2026-09-01 00:09:23 | 46.36968 | 20.82793 | 75° | 69km/h | 15336m | 5.8m/s | 0°C | 0% | 122.8hPa | 0V | 00:00:00 | 00:00:00 | 00:00:00 | |
| LZ4TU-5 | 2026-09-01 00:07:28 | 46.36240 | 20.80432 | 59° | 69km/h | 14790m | 6.3m/s | 0°C | 0% | 0hPa | 0V | 00:00:00 | 00:00:00 | 00:00:00 | |
| GYPAP8-17 | 2026-09-01 00:06:35 | 46.35938 | 20.79131 | 87° | 75km/h | 14496m | 6.6m/s | -60.2°C | 6.2% | 140.5hPa | 0V | 00:00:00 | 00:00:00 | 00:00:00 | |
| LZ4TU-5 | 2026-09-01 00:05:40 | 46.35767 | 20.77816 | 82° | 84km/h | 14179m | 5.7m/s | 0°C | 0% | 0hPa | 0V | 00:00:00 | 00:00:00 | 00:00:00 | |
| LZ4TU-5 | 2026-09-01 00:05:38 | 46.35758 | 20.77708 | 87° | 69km/h | 14153m | 4.8m/s | 0°C | 0% | 0hPa | 0V | 00:00:00 | 00:00:00 | 00:00:00 | |
| GYPAP8-17 | 2026-09-01 00:05:31 | 46.35740 | 20.77552 | 78° | 78km/h | 14120m | 7.3m/s | -57.5°C | 5.6% | 149.2hPa | 0V | 00:00:00 | 00:00:00 | 00:00:00 | |
| LZ4TU-5 | 2026-09-01 00:03:56 | 46.35389 | 20.74668 | 83° | 89km/h | 13635m | 1.4m/s | 0°C | 0% | 0hPa | 0V | 00:00:00 | 00:00:00 | 00:00:00 | |
| LZ4TU-5 | 2026-09-01 00:03:52 | 46.35373 | 20.74537 | 76° | 91km/h | 13617m | 1.6m/s | 0°C | 0% | 0hPa | 0V | 00:00:00 | 00:00:00 | 00:00:00 | |
| LZ4TU-5 | 2026-09-01 00:02:16 | 46.34956 | 20.70239 | 82° | 135km/h | 13187m | 4.9m/s | 0°C | 0% | 0hPa | 0V | 00:00:00 | 00:00:00 | 00:00:00 | |
| LZ4TU-5 | 2026-09-01 00:02:08 | 46.34929 | 20.69994 | 82° | 146km/h | 13171m | 5.1m/s | 0°C | 0% | 0hPa | 0V | 00:00:00 | 00:00:00 | 00:00:00 | |
| LZ4TU-5 | 2026-09-01 00:00:30 | 46.34425 | 20.64888 | 83° | 146km/h | 12699m | 4.4m/s | 0°C | 0% | 0hPa | 0V | 00:00:00 | 00:00:00 | 00:00:00 | |
| LZ4TU-5 | 2026-09-01 00:00:28 | 46.34397 | 20.64624 | 85° | 144km/h | 12677m | 4.4m/s | 0°C | 0% | 0hPa | 0V | 00:00:00 | 00:00:00 | 00:00:00 | |
| LZ4TU-5 | 2026-08-31 23:58:43 | 46.34080 | 20.59089 | 86° | 162km/h | 12155m | 5.6m/s | 0°C | 0% | 0hPa | 0V | 00:00:00 | 00:00:00 | 00:00:00 | |
| LZ4TU-5 | 2026-08-31 23:58:38 | 46.34069 | 20.58793 | 92° | 159km/h | 12131m | 3.7m/s | 0°C | 0% | 0hPa | 0V | 00:00:00 | 00:00:00 | 00:00:00 | |
| GYPAP8-17 | 2026-08-31 23:58:19 | 46.34023 | 20.57723 | 84° | 159km/h | 12026m | 4.7m/s | -54.6°C | 25.9% | 207.1hPa | 0V | 00:00:00 | 00:00:00 | 00:00:00 | |
| GYPAP8-17 | 2026-08-31 23:57:10 | 46.33740 | 20.53927 | 88° | 150km/h | 11659m | 6.3m/s | -52.7°C | 28.9% | 219.4hPa | 0V | 00:00:00 | 00:00:00 | 00:00:00 | |
| LZ4TU-5 | 2026-08-31 23:56:55 | 46.33685 | 20.53125 | 83° | 151km/h | 11581m | 5.0m/s | 0°C | 0% | 0hPa | 0V | 00:00:00 | 00:00:00 | 00:00:00 | |
| LZ4TU-5 | 2026-08-31 23:56:50 | 46.33665 | 20.52841 | 86° | 151km/h | 11553m | 6.6m/s | 0°C | 0% | 0hPa | 0V | 00:00:00 | 00:00:00 | 00:00:00 | |
| LZ4TU-5 | 2026-08-31 23:55:10 | 46.33427 | 20.47740 | 85° | 135km/h | 11043m | 5.6m/s | 0°C | 0% | 0hPa | 0V | 00:00:00 | 00:00:00 | 00:00:00 | |
| LZ4TU-5 | 2026-08-31 23:55:05 | 46.33421 | 20.47489 | 92° | 141km/h | 11014m | 5.3m/s | 0°C | 0% | 0hPa | 0V | 00:00:00 | 00:00:00 | 00:00:00 | |
| GYPAP8-17 | 2026-08-31 23:54:58 | 46.33409 | 20.47090 | 88° | 131km/h | 10968m | 5.4m/s | -49.2°C | 37.5% | 243.9hPa | 0V | 00:00:00 | 00:00:00 | 00:00:00 | |
| GYPAP8-17 | 2026-08-31 23:53:43 | 46.33217 | 20.43624 | 84° | 131km/h | 10591m | 5.3m/s | -46.7°C | 44.4% | 258.3hPa | 0V | 00:00:00 | 00:00:00 | 00:00:00 | |
| LZ4TU-5 | 2026-08-31 23:53:25 | 46.33140 | 20.42913 | 81° | 102km/h | 10508m | 3.8m/s | 0°C | 0% | 0hPa | 0V | 00:00:00 | 00:00:00 | 00:00:00 | |
| LZ4TU-5 | 2026-08-31 23:53:21 | 46.33120 | 20.42710 | 85° | 119km/h | 10486m | 5.7m/s | 0°C | 0% | 0hPa | 0V | 00:00:00 | 00:00:00 | 00:00:00 | |
| LZ4TU-5 | 2026-08-31 23:51:33 | 46.32436 | 20.38483 | 78° | 97km/h | 9905m | 5.6m/s | 0°C | 0% | 0hPa | 0V | 00:00:00 | 00:00:00 | 00:00:00 | |
| LZ4TU-5 | 2026-08-31 23:51:28 | 46.32405 | 20.38343 | 71° | 106km/h | 9889m | 4.4m/s | 0°C | 0% | 0hPa | 0V | 00:00:00 | 00:00:00 | 00:00:00 | |
| LZ4TU-5 | 2026-08-31 23:51:23 | 46.32369 | 20.38174 | 79° | 86km/h | 9869m | 5.2m/s | 0°C | 0% | 0hPa | 0V | 00:00:00 | 00:00:00 | 00:00:00 | |
| LZ4TU-5 | 2026-08-31 23:51:19 | 46.32342 | 20.38006 | 75° | 104km/h | 9845m | 4.3m/s | 0°C | 0% | 0hPa | 0V | 00:00:00 | 00:00:00 | 00:00:00 | |
| LZ4TU-5 | 2026-08-31 23:47:33 | 46.31032 | 20.31306 | 67° | 75km/h | 8634m | 5.7m/s | 0°C | 0% | 0hPa | 0V | 00:00:00 | 00:00:00 | 00:00:00 | |
| LZ4TU-5 | 2026-08-31 23:47:28 | 46.30995 | 20.31194 | 64° | 95km/h | 8611m | 4.0m/s | 0°C | 0% | 0hPa | 0V | 00:00:00 | 00:00:00 | 00:00:00 | |
| LZ4TU-5 | 2026-08-31 23:47:23 | 46.30949 | 20.31038 | 72° | 82km/h | 8585m | 5.1m/s | 0°C | 0% | 0hPa | 0V | 00:00:00 | 00:00:00 | 00:00:00 | |
| GYPAP8-17 | 2026-08-31 23:42:41 | 46.28332 | 20.24850 | 53° | 51km/h | 7215m | 5.7m/s | -19.3°C | 0% | 0hPa | 0V | 00:00:00 | 00:00:00 | 00:00:00 |